West Falmouth, MA

1:32 AM EST on February 23, 2017 (GMT -0500)
K1JZ, Westmoreland Dr, West Falmouth, MA | | Change Station
Active Advisory: Dense Fog Advisory

Elev 120 ft 41.60 °N, 70.63 °W | Updated 9 minutes ago

Fog
Fog
37.9 °F
Feels Like 38 °F
N
3.0
Wind Variable Wind from WNW
Gusts 10.0 mph

Today
High -- | Low -- °F
--% Chance of Precip.
Yesterday
High -- | Low -- °F
Precip. -- in
Pressure 29.90 in
Visibility 0.5 miles
Clouds
Windchill 38 °F
Dew Point 37 °F
Humidity 97%
Rainfall 0.00 in
Snow Depth Not available.
6:26 AM 5:26 PM
Waning Crescent, 12% visible
SPECI KMVY 230558Z AUTO 22005KT 1/2SM R24/2200V2400FT FG VV002 07/07 A2990 RMK AO2 T00720067 TSNO
Pressure 29.90 in
Visibility 0.5 miles
Clouds
Windchill 38 °F
Dew Point 37 °F
Humidity 97%
Rainfall 0.00 in
Snow Depth Not available.
6:26 AM 5:26 PM
Waning Crescent, 12% visible
SPECI KMVY 230558Z AUTO 22005KT 1/2SM R24/2200V2400FT FG VV002 07/07 A2990 RMK AO2 T00720067 TSNO

Get Your Daily Forecast Email!

Thanks for signing up!

Be on the lookout for a verification email in your inbox.

You'll start receiving the daily forecast at 8 AM.

×

10-Day Weather Forecast

Almanac

Astronomy

Feb. 23, 2017 Rise Set
Actual Time
Civil Twilight
Nautical Twilight
Astronomical Twilight
Moon
Length of Visible Light
Length of Day
Tomorrow will be .
, % of the Moon is Illuminated

Today's Extremes

State Highs State Lows

Community

WunderPhotos

Upload Photos

1,962,540 photos uploaded!

WunderBlog® & News

Nearby

Air Quality

  Air Quality AQ Index Pollutant
Not available.

Snow Depth

Station Depth Elevation

Earthquake Activity

City Distance Mag. Time & Date
Minimum magnitude displayed is 2.5.

Coastal Water Temperatures

Place Temperature

Stations

Nearby Weather Stations

Station Location Temp. Windchill Dew Point Humidity Wind Precip. Elev Updated Type
                   

Watches & Warnings

Dense Fog Advisory
Issued: 12:29 AM EST Feb. 23, 2017 – National Weather Service

... Dense fog advisory in effect until 9 am EST this morning...

The National Weather Service in Taunton has issued a dense fog
advisory, which is in effect until 9 am EST this morning.

* Location... Cape Cod, Nantucket, Marthas Vineyard, Block Island.

* Visibilities... one quarter mile or less at times.

* Timing... until 9 am this morning.

* Impacts... areas of poor visibility in fog will create hazardous
driving conditions with little warning.

Precautionary/preparedness actions...

A dense fog advisory means visibilities will frequently be
reduced to less than one quarter mile, for at least 3 hours. If
driving, slow down, use your headlights, and leave plenty of
distance ahead of you.



For the latest updates... please visit our webpage at
www.Weather.Gov/Boston

You can follow US on facebook at
www.Facebook.Com/nwsboston